createdAt,value
2022-10-15T00:00:03.248Z,17.23
2022-10-15T00:01:03.062Z,17.25
2022-10-15T00:02:02.679Z,17.28
2022-10-15T00:03:02.274Z,17.30
2022-10-15T00:05:02.660Z,17.33
2022-10-15T00:06:02.278Z,17.29
2022-10-15T00:07:02.767Z,17.29
2022-10-15T00:08:02.310Z,17.30
2022-10-15T00:09:02.784Z,17.28
2022-10-15T00:10:02.420Z,17.22
2022-10-15T00:11:02.716Z,17.23
2022-10-15T00:12:02.610Z,17.23
2022-10-15T00:14:02.675Z,17.20
2022-10-15T00:15:02.924Z,17.23
2022-10-15T00:16:02.964Z,17.25
2022-10-15T00:17:03.413Z,17.26
2022-10-15T00:18:02.945Z,17.25
2022-10-15T00:19:02.796Z,17.25
2022-10-15T00:20:03.248Z,17.20
2022-10-15T00:21:03.266Z,17.23
2022-10-15T00:22:02.772Z,17.25
2022-10-15T00:23:02.183Z,17.23
2022-10-15T00:24:02.642Z,17.25
2022-10-15T00:25:02.376Z,17.26
2022-10-15T00:26:02.332Z,17.26
2022-10-15T00:27:02.832Z,17.29
2022-10-15T00:28:03.340Z,17.29
2022-10-15T00:29:03.190Z,17.32
2022-10-15T00:30:03.079Z,17.32
2022-10-15T00:32:02.622Z,17.35
2022-10-15T00:33:03.179Z,17.33
2022-10-15T00:34:02.674Z,17.33
2022-10-15T00:35:02.570Z,17.36
2022-10-15T00:36:02.533Z,17.36
2022-10-15T00:37:03.587Z,17.38
2022-10-15T00:38:03.241Z,17.35
2022-10-15T00:39:03.135Z,17.33
2022-10-15T00:41:03.568Z,17.33
2022-10-15T00:42:03.182Z,17.33
2022-10-15T00:43:03.068Z,17.32
2022-10-15T00:44:03.318Z,17.32
2022-10-15T00:45:03.216Z,17.32
2022-10-15T00:46:03.096Z,17.33
2022-10-15T00:47:02.743Z,17.35
2022-10-15T00:48:02.693Z,17.35
2022-10-15T00:50:03.110Z,17.32
2022-10-15T00:51:02.987Z,17.30
2022-10-15T00:52:02.849Z,17.28
2022-10-15T00:53:02.729Z,17.26
2022-10-15T00:54:03.301Z,17.23
2022-10-15T00:55:02.932Z,17.20
2022-10-15T00:56:02.805Z,17.20
2022-10-15T00:57:02.418Z,17.17
2022-10-15T00:58:02.263Z,17.17
2022-10-15T00:59:02.861Z,17.17
2022-10-15T01:00:02.481Z,17.18
2022-10-15T01:01:02.408Z,17.22
2022-10-15T01:02:02.906Z,17.22
2022-10-15T01:03:02.893Z,17.20
2022-10-15T01:04:03.003Z,17.22
2022-10-15T01:05:03.385Z,17.25
2022-10-15T01:06:03.008Z,17.25
2022-10-15T01:07:02.627Z,17.23
2022-10-15T01:08:02.500Z,17.23
2022-10-15T01:09:02.365Z,17.23
2022-10-15T01:10:02.930Z,17.18
2022-10-15T01:11:02.370Z,17.20
2022-10-15T01:12:02.911Z,17.17
2022-10-15T01:13:02.784Z,17.17
2022-10-15T01:14:03.116Z,17.13
2022-10-15T01:15:02.843Z,17.11
2022-10-15T01:16:02.773Z,17.10
2022-10-15T01:17:03.351Z,17.07
2022-10-15T01:18:03.204Z,17.04
2022-10-15T01:19:03.530Z,17.06
2022-10-15T01:20:03.225Z,17.07
2022-10-15T01:21:03.649Z,17.07
2022-10-15T01:22:02.900Z,17.06
2022-10-15T01:23:02.671Z,17.03
2022-10-15T01:24:03.202Z,17.00
2022-10-15T01:25:03.047Z,16.99
2022-10-15T01:26:02.846Z,16.98
2022-10-15T01:27:03.168Z,16.95
2022-10-15T01:28:03.029Z,16.95
2022-10-15T01:29:03.549Z,16.93
2022-10-15T01:30:03.716Z,16.92
2022-10-15T01:31:03.302Z,16.92
2022-10-15T01:32:03.612Z,16.89
2022-10-15T01:33:03.397Z,16.92
2022-10-15T01:34:03.509Z,16.90
2022-10-15T01:35:03.361Z,16.89
2022-10-15T01:36:06.342Z,16.89
2022-10-15T01:37:03.588Z,16.92
2022-10-15T01:38:03.452Z,16.89
2022-10-15T01:39:03.822Z,16.86
2022-10-15T01:40:03.855Z,16.83
2022-10-15T01:41:03.709Z,16.85
2022-10-15T01:42:03.186Z,16.83
2022-10-15T01:43:03.032Z,16.88
2022-10-15T01:44:03.459Z,16.86
2022-10-15T01:45:03.257Z,16.81
2022-10-15T01:46:03.113Z,16.80
2022-10-15T01:47:03.547Z,16.81
2022-10-15T01:48:03.369Z,16.80
2022-10-15T01:49:03.867Z,16.75
2022-10-15T01:50:03.490Z,16.74
2022-10-15T01:51:03.880Z,16.77
2022-10-15T01:52:03.215Z,16.81
2022-10-15T01:53:03.021Z,16.85
2022-10-15T01:54:02.813Z,16.81
2022-10-15T01:55:03.297Z,16.83
2022-10-15T01:56:03.071Z,16.86
2022-10-15T01:57:03.530Z,16.86
2022-10-15T01:58:03.295Z,16.85
2022-10-15T01:59:03.765Z,16.88
2022-10-15T02:00:03.616Z,16.88
2022-10-15T02:01:03.547Z,16.86
2022-10-15T02:02:03.099Z,16.86
2022-10-15T02:03:02.906Z,16.88
2022-10-15T02:04:02.695Z,16.89
2022-10-15T02:05:03.188Z,16.89
2022-10-15T02:06:02.961Z,16.88
2022-10-15T02:07:03.526Z,16.88
2022-10-15T02:08:03.326Z,16.90
2022-10-15T02:09:03.174Z,16.88
2022-10-15T02:10:03.640Z,16.88
2022-10-15T02:11:03.102Z,16.90
2022-10-15T02:12:03.596Z,16.92
2022-10-15T02:13:03.251Z,16.95
2022-10-15T02:14:03.619Z,16.95
2022-10-15T02:15:03.393Z,16.95
2022-10-15T02:16:03.141Z,16.92
2022-10-15T02:17:03.593Z,16.86
2022-10-15T02:18:03.478Z,16.92
2022-10-15T02:19:03.294Z,16.92
2022-10-15T02:20:03.426Z,16.90
2022-10-15T02:21:03.226Z,16.89
2022-10-15T02:22:03.723Z,16.92
2022-10-15T02:23:03.440Z,16.95
2022-10-15T02:24:03.338Z,16.96
2022-10-15T02:25:03.848Z,16.98
2022-10-15T02:26:03.436Z,16.95
2022-10-15T02:27:03.046Z,16.93
2022-10-15T02:28:02.569Z,16.96
2022-10-15T02:29:03.313Z,16.96
2022-10-15T02:30:02.889Z,16.93
2022-10-15T02:31:02.717Z,16.93
2022-10-15T02:32:03.220Z,16.93
2022-10-15T02:33:02.983Z,16.95
2022-10-15T02:34:02.834Z,16.93
2022-10-15T02:35:03.371Z,16.90
2022-10-15T02:36:02.964Z,16.85
2022-10-15T02:37:03.444Z,16.85
2022-10-15T02:38:03.340Z,16.81
2022-10-15T02:39:03.175Z,16.81
2022-10-15T02:40:03.079Z,16.85
2022-10-15T02:41:03.517Z,16.83
2022-10-15T02:42:03.168Z,16.80
2022-10-15T02:43:02.939Z,16.81
2022-10-15T02:44:03.162Z,16.78
2022-10-15T02:45:02.969Z,16.78
2022-10-15T02:46:02.757Z,16.80
2022-10-15T02:47:03.137Z,16.86
2022-10-15T02:48:02.839Z,16.88
2022-10-15T02:49:02.737Z,16.88
2022-10-15T02:50:03.217Z,16.89
2022-10-15T02:51:03.097Z,16.90
2022-10-15T02:52:03.532Z,16.86
2022-10-15T02:53:03.340Z,16.83
2022-10-15T02:54:03.139Z,16.86
2022-10-15T02:55:03.640Z,16.85
2022-10-15T02:56:03.177Z,16.83
2022-10-15T02:57:03.641Z,16.80
2022-10-15T02:58:03.184Z,16.80
2022-10-15T02:59:03.661Z,16.81
2022-10-15T03:00:03.187Z,16.80
2022-10-15T03:01:03.804Z,16.81
2022-10-15T03:02:03.082Z,16.80
2022-10-15T03:03:02.722Z,16.81
2022-10-15T03:04:03.149Z,16.83
2022-10-15T03:05:02.654Z,16.83
2022-10-15T03:06:02.522Z,16.81
2022-10-15T03:07:02.055Z,16.81
2022-10-15T03:08:02.521Z,16.81
2022-10-15T03:09:02.121Z,16.80
2022-10-15T03:10:02.635Z,16.75
2022-10-15T03:11:02.400Z,16.74
2022-10-15T03:12:02.913Z,16.74
2022-10-15T03:13:02.392Z,16.75
2022-10-15T03:14:02.831Z,16.77
2022-10-15T03:15:02.361Z,16.77
2022-10-15T03:16:02.863Z,16.77
2022-10-15T03:17:03.052Z,16.78
2022-10-15T03:18:02.717Z,16.80
2022-10-15T03:19:02.733Z,16.80
2022-10-15T03:20:02.511Z,16.80
2022-10-15T03:21:02.969Z,16.83
2022-10-15T03:22:02.579Z,16.81
2022-10-15T03:23:03.046Z,16.83
2022-10-15T03:24:02.820Z,16.81
2022-10-15T03:25:02.948Z,16.83
2022-10-15T03:26:02.729Z,16.80
2022-10-15T03:27:02.255Z,16.80
2022-10-15T03:28:02.720Z,16.80
2022-10-15T03:29:02.459Z,16.78
2022-10-15T03:30:02.207Z,16.78
2022-10-15T03:31:02.303Z,16.78
2022-10-15T03:32:02.714Z,16.80
2022-10-15T03:33:03.104Z,16.77
2022-10-15T03:34:02.902Z,16.74
2022-10-15T03:35:03.371Z,16.77
2022-10-15T03:36:02.905Z,16.75
2022-10-15T03:37:02.446Z,16.74
2022-10-15T03:38:02.905Z,16.73
2022-10-15T03:39:02.690Z,16.75
2022-10-15T03:40:02.467Z,16.75
2022-10-15T03:41:02.845Z,16.75
2022-10-15T03:42:02.702Z,16.74
2022-10-15T03:43:02.557Z,16.75
2022-10-15T03:44:03.024Z,16.70
2022-10-15T03:45:02.783Z,16.67
2022-10-15T03:46:02.548Z,16.65
2022-10-15T03:47:03.034Z,16.62
2022-10-15T03:48:03.507Z,16.60
2022-10-15T03:49:03.139Z,16.63
2022-10-15T03:50:03.503Z,16.59
2022-10-15T03:51:03.427Z,16.58
2022-10-15T03:52:02.218Z,16.55
2022-10-15T03:53:02.698Z,16.56
2022-10-15T03:54:02.701Z,16.59
2022-10-15T03:55:02.594Z,16.62
2022-10-15T03:56:02.366Z,16.63
2022-10-15T03:57:02.833Z,16.65
2022-10-15T03:58:03.282Z,16.62
2022-10-15T03:59:02.808Z,16.67
2022-10-15T04:00:03.259Z,16.67
2022-10-15T04:01:03.321Z,16.70
2022-10-15T04:02:02.926Z,16.70
2022-10-15T04:03:02.893Z,16.73
2022-10-15T04:04:03.416Z,16.74
2022-10-15T04:05:02.935Z,16.75
2022-10-15T04:06:03.526Z,16.68
2022-10-15T04:07:03.058Z,16.70
2022-10-15T04:08:03.550Z,16.62
2022-10-15T04:09:03.090Z,16.62
2022-10-15T04:10:02.926Z,16.59
2022-10-15T04:11:03.418Z,16.59
2022-10-15T04:12:02.450Z,16.59
2022-10-15T04:13:02.233Z,16.56
2022-10-15T04:14:02.702Z,16.56
2022-10-15T04:15:02.662Z,16.58
2022-10-15T04:16:02.123Z,16.59
2022-10-15T04:17:02.656Z,16.58
2022-10-15T04:18:03.047Z,16.60
2022-10-15T04:19:05.102Z,16.60
2022-10-15T04:20:03.008Z,16.62
2022-10-15T04:21:02.558Z,16.62
2022-10-15T04:22:02.733Z,16.60
2022-10-15T04:23:02.294Z,16.59
2022-10-15T04:24:02.090Z,16.60
2022-10-15T04:25:02.656Z,16.58
2022-10-15T04:26:02.268Z,16.56
2022-10-15T04:27:02.897Z,16.55
2022-10-15T04:28:02.677Z,16.55
2022-10-15T04:29:03.294Z,16.58
2022-10-15T04:30:02.796Z,16.59
2022-10-15T04:31:02.968Z,16.56
2022-10-15T04:32:02.512Z,16.49
2022-10-15T04:33:02.281Z,16.49
2022-10-15T04:34:02.479Z,16.49
2022-10-15T04:35:02.253Z,16.48
2022-10-15T04:36:02.788Z,16.38
2022-10-15T04:37:03.068Z,16.31
2022-10-15T04:38:02.940Z,16.34
2022-10-15T04:39:03.367Z,16.34
2022-10-15T04:40:02.985Z,16.31
2022-10-15T04:41:02.872Z,16.34
2022-10-15T04:42:03.392Z,16.35
2022-10-15T04:43:03.185Z,16.34
2022-10-15T04:44:03.456Z,16.31
2022-10-15T04:45:03.270Z,16.33
2022-10-15T04:46:03.045Z,16.31
2022-10-15T04:47:02.605Z,16.25
2022-10-15T04:48:02.245Z,16.20
2022-10-15T04:49:02.715Z,16.16
2022-10-15T04:50:02.485Z,16.07
2022-10-15T04:51:02.244Z,16.09
2022-10-15T04:52:02.703Z,16.06
2022-10-15T04:53:02.532Z,16.03
2022-10-15T04:54:02.333Z,15.99
2022-10-15T04:55:02.612Z,16.00
2022-10-15T04:56:02.507Z,15.99
2022-10-15T04:57:03.026Z,15.97
2022-10-15T04:58:02.879Z,15.99
2022-10-15T04:59:02.687Z,16.00
2022-10-15T05:00:03.178Z,16.01
2022-10-15T05:01:02.657Z,16.00
2022-10-15T05:02:03.156Z,15.97
2022-10-15T05:03:03.049Z,16.01
2022-10-15T05:04:02.927Z,16.00
2022-10-15T05:05:02.744Z,16.01
2022-10-15T05:06:03.375Z,16.00
2022-10-15T05:07:02.696Z,15.99
2022-10-15T05:08:02.574Z,16.01
2022-10-15T05:09:02.452Z,16.01
2022-10-15T05:10:02.301Z,16.03
2022-10-15T05:11:02.768Z,16.01
2022-10-15T05:12:03.139Z,15.99
2022-10-15T05:13:02.998Z,16.01
2022-10-15T05:14:02.867Z,16.04
2022-10-15T05:15:03.319Z,16.03
2022-10-15T05:16:03.314Z,16.03
2022-10-15T05:17:02.902Z,16.04
2022-10-15T05:18:02.687Z,16.04
2022-10-15T05:19:02.476Z,16.04
2022-10-15T05:20:02.815Z,15.99
2022-10-15T05:21:02.585Z,15.96
2022-10-15T05:22:03.075Z,15.94
2022-10-15T05:23:02.988Z,15.96
2022-10-15T05:24:02.974Z,15.96
2022-10-15T05:25:02.871Z,16.00
2022-10-15T05:26:02.754Z,15.99
2022-10-15T05:27:03.438Z,15.99
2022-10-15T05:28:03.236Z,15.99
2022-10-15T05:29:03.338Z,16.00
2022-10-15T05:30:03.070Z,16.00
2022-10-15T05:31:03.568Z,16.00
2022-10-15T05:32:02.865Z,16.00
2022-10-15T05:33:02.669Z,16.00
2022-10-15T05:34:02.319Z,15.99
2022-10-15T05:35:02.636Z,16.00
2022-10-15T05:36:02.448Z,15.96
2022-10-15T05:37:02.938Z,15.96
2022-10-15T05:38:02.751Z,15.96
2022-10-15T05:39:02.571Z,15.94
2022-10-15T05:40:02.409Z,15.92
2022-10-15T05:41:03.023Z,15.89
2022-10-15T05:42:03.284Z,15.86
2022-10-15T05:43:03.098Z,15.93
2022-10-15T05:44:03.276Z,15.89
2022-10-15T05:45:03.218Z,15.85
2022-10-15T05:46:02.947Z,15.85
2022-10-15T05:47:03.333Z,15.85
2022-10-15T05:48:03.603Z,15.86
2022-10-15T05:49:03.358Z,15.88
2022-10-15T05:50:05.168Z,15.92
2022-10-15T05:51:03.231Z,15.94
2022-10-15T05:52:03.665Z,15.93
2022-10-15T05:53:03.484Z,15.96
2022-10-15T05:54:03.168Z,15.92
2022-10-15T05:55:03.744Z,15.94
2022-10-15T05:56:03.196Z,15.93
2022-10-15T05:57:02.754Z,15.94
2022-10-15T05:58:03.286Z,15.93
2022-10-15T05:59:03.092Z,15.93
2022-10-15T06:00:02.885Z,15.92
2022-10-15T06:01:02.984Z,15.94
2022-10-15T06:02:01.914Z,15.94
2022-10-15T06:03:01.863Z,15.94
2022-10-15T06:04:01.842Z,15.89
2022-10-15T06:05:02.333Z,15.85
2022-10-15T06:06:02.202Z,15.86
2022-10-15T06:07:02.018Z,15.88
2022-10-15T06:08:02.638Z,15.92
2022-10-15T06:09:02.239Z,15.89
2022-10-15T06:10:02.110Z,15.94
2022-10-15T06:11:05.333Z,15.97
2022-10-15T06:12:02.275Z,15.92
2022-10-15T06:13:02.917Z,15.94
2022-10-15T06:14:02.433Z,15.96
2022-10-15T06:15:02.328Z,15.93
2022-10-15T06:16:02.276Z,15.85
2022-10-15T06:17:01.888Z,15.86
2022-10-15T06:18:02.434Z,15.88
2022-10-15T06:19:02.078Z,15.89
2022-10-15T06:20:01.962Z,15.86
2022-10-15T06:21:01.848Z,15.89
2022-10-15T06:22:02.369Z,15.89
2022-10-15T06:23:02.447Z,15.84
2022-10-15T06:24:05.115Z,15.86
2022-10-15T06:25:02.345Z,15.92
2022-10-15T06:26:02.338Z,15.89
2022-10-15T06:27:02.009Z,15.89
2022-10-15T06:28:01.938Z,15.89
2022-10-15T06:29:02.260Z,15.88
2022-10-15T06:30:02.250Z,15.84
2022-10-15T06:31:02.257Z,15.84
2022-10-15T06:32:02.222Z,15.84
2022-10-15T06:33:02.077Z,15.85
2022-10-15T06:34:02.722Z,15.81
2022-10-15T06:35:02.469Z,15.78
2022-10-15T06:36:02.354Z,15.78
2022-10-15T06:37:02.261Z,15.76
2022-10-15T06:38:03.268Z,15.78
2022-10-15T06:39:02.240Z,15.78
2022-10-15T06:40:02.250Z,15.72
2022-10-15T06:41:02.219Z,15.70
2022-10-15T06:42:02.388Z,15.72
2022-10-15T06:43:02.736Z,15.68
2022-10-15T06:44:02.713Z,15.67
2022-10-15T06:45:02.547Z,15.70
2022-10-15T06:46:02.529Z,15.68
2022-10-15T06:47:02.439Z,15.67
2022-10-15T06:48:02.465Z,15.70
2022-10-15T06:49:02.402Z,15.70
2022-10-15T06:50:02.415Z,15.72
2022-10-15T06:51:02.407Z,15.66
2022-10-15T06:52:03.611Z,15.67
2022-10-15T06:53:02.492Z,15.72
2022-10-15T06:54:02.183Z,15.70
2022-10-15T06:55:02.077Z,15.72
2022-10-15T06:56:02.026Z,15.74
2022-10-15T06:57:02.146Z,15.68
2022-10-15T06:58:02.026Z,15.61
2022-10-15T06:59:02.033Z,15.59
2022-10-15T07:00:02.038Z,15.59
2022-10-15T07:01:02.051Z,15.60
2022-10-15T07:02:02.757Z,15.66
2022-10-15T07:03:02.698Z,15.67
2022-10-15T07:04:02.633Z,15.74
2022-10-15T07:05:02.643Z,15.76
2022-10-15T07:06:02.558Z,15.75
2022-10-15T07:07:02.225Z,15.78
2022-10-15T07:08:02.237Z,15.79
2022-10-15T07:09:02.193Z,15.84
2022-10-15T07:10:02.162Z,15.88
2022-10-15T07:11:02.375Z,15.93
2022-10-15T07:12:02.293Z,15.94
2022-10-15T07:13:02.270Z,15.99
2022-10-15T07:14:02.635Z,15.96
2022-10-15T07:15:02.461Z,16.00
2022-10-15T07:16:02.442Z,16.01
2022-10-15T07:17:02.426Z,16.04
2022-10-15T07:18:02.141Z,16.06
2022-10-15T07:19:02.390Z,16.07
2022-10-15T07:20:02.299Z,16.09
2022-10-15T07:21:02.545Z,16.03
2022-10-15T07:22:02.977Z,15.97
2022-10-15T07:23:02.999Z,15.88
2022-10-15T07:24:02.890Z,15.85
2022-10-15T07:25:02.881Z,15.88
2022-10-15T07:26:02.900Z,15.84
2022-10-15T07:27:08.070Z,15.85
2022-10-15T07:28:02.367Z,15.85
2022-10-15T07:29:02.324Z,15.85
2022-10-15T07:30:02.314Z,15.89
2022-10-15T07:31:02.296Z,15.93
2022-10-15T07:32:02.873Z,15.96
2022-10-15T07:33:02.871Z,16.01
2022-10-15T07:34:02.794Z,16.04
2022-10-15T07:35:03.125Z,16.09
2022-10-15T07:36:03.222Z,16.16
2022-10-15T07:37:02.989Z,16.20
2022-10-15T07:38:02.995Z,16.26
2022-10-15T07:39:03.007Z,16.30
2022-10-15T07:40:02.966Z,16.34
2022-10-15T07:41:02.985Z,16.38
2022-10-15T07:42:02.305Z,16.38
2022-10-15T07:43:02.460Z,16.42
2022-10-15T07:44:02.389Z,16.49
2022-10-15T07:45:02.402Z,16.50
2022-10-15T07:46:02.373Z,16.55
2022-10-15T07:47:02.927Z,16.55
2022-10-15T07:48:03.048Z,16.58
2022-10-15T07:49:02.639Z,16.63
2022-10-15T07:50:02.597Z,16.63
2022-10-15T07:51:03.280Z,16.71
2022-10-15T07:52:02.722Z,16.75
2022-10-15T07:53:02.704Z,16.78
2022-10-15T07:54:02.924Z,16.81
2022-10-15T07:55:02.583Z,16.85
2022-10-15T07:56:02.542Z,16.89
2022-10-15T07:57:03.149Z,16.85
2022-10-15T07:58:02.739Z,16.88
2022-10-15T07:59:03.011Z,16.90
2022-10-15T08:00:03.053Z,16.98
2022-10-15T08:01:03.096Z,17.00
2022-10-15T08:02:02.823Z,16.98
2022-10-15T08:03:02.817Z,17.00
2022-10-15T08:04:02.878Z,17.07
2022-10-15T08:05:02.760Z,17.11
2022-10-15T08:06:02.755Z,17.14
2022-10-15T08:07:04.006Z,17.18
2022-10-15T08:08:02.614Z,17.15
2022-10-15T08:09:02.328Z,17.22
2022-10-15T08:10:02.233Z,17.26
2022-10-15T08:11:02.142Z,17.29
2022-10-15T08:12:02.786Z,17.33
2022-10-15T08:13:02.750Z,17.33
2022-10-15T08:14:02.692Z,17.36
2022-10-15T08:15:02.636Z,17.43
2022-10-15T08:16:02.526Z,17.43
2022-10-15T08:17:02.914Z,17.43
2022-10-15T08:18:02.842Z,17.41
2022-10-15T08:19:02.680Z,17.46
2022-10-15T08:20:02.826Z,17.46
2022-10-15T08:21:02.698Z,17.47
2022-10-15T08:22:02.639Z,17.48
2022-10-15T08:23:02.241Z,17.54
2022-10-15T08:24:02.042Z,17.55
2022-10-15T08:25:02.619Z,17.57
2022-10-15T08:26:02.176Z,17.57
2022-10-15T08:27:02.694Z,17.57
2022-10-15T08:28:02.535Z,17.54
2022-10-15T08:29:02.539Z,17.54
2022-10-15T08:30:02.341Z,17.53
2022-10-15T08:31:05.226Z,17.50
2022-10-15T08:32:03.344Z,17.53
2022-10-15T08:33:03.051Z,17.53
2022-10-15T08:34:02.872Z,17.55
2022-10-15T08:35:03.390Z,17.62
2022-10-15T08:36:03.091Z,17.62
2022-10-15T08:37:02.891Z,17.64
2022-10-15T08:38:02.691Z,17.63
2022-10-15T08:39:02.799Z,17.64
2022-10-15T08:40:02.348Z,17.69
2022-10-15T08:41:02.265Z,17.74
2022-10-15T08:42:02.901Z,17.78
2022-10-15T08:43:02.505Z,17.81
2022-10-15T08:44:02.413Z,17.87
2022-10-15T08:45:02.297Z,17.89
2022-10-15T08:46:02.945Z,17.89
2022-10-15T08:47:03.087Z,17.94
2022-10-15T08:48:02.993Z,17.97
2022-10-15T08:49:02.905Z,17.99
2022-10-15T08:50:03.663Z,17.97
2022-10-15T08:51:03.321Z,18.02
2022-10-15T08:52:02.353Z,18.07
2022-10-15T08:53:02.928Z,18.12
2022-10-15T08:54:02.806Z,18.15
2022-10-15T08:55:02.796Z,18.13
2022-10-15T08:56:02.785Z,18.07
2022-10-15T08:57:02.764Z,18.04
2022-10-15T08:58:02.786Z,18.07
2022-10-15T08:59:03.400Z,18.10
2022-10-15T09:00:03.143Z,18.09
2022-10-15T09:01:03.223Z,18.04
2022-10-15T09:02:02.218Z,18.02
2022-10-15T09:03:02.862Z,18.02
2022-10-15T09:04:02.557Z,18.04
2022-10-15T09:05:02.519Z,18.10
2022-10-15T09:06:02.427Z,18.06
2022-10-15T09:07:02.754Z,18.04
2022-10-15T09:08:02.704Z,18.04
2022-10-15T09:09:03.221Z,18.07
2022-10-15T09:10:02.707Z,18.09
2022-10-15T09:11:03.281Z,18.10
2022-10-15T09:12:02.985Z,18.13
2022-10-15T09:13:02.993Z,18.19
2022-10-15T09:14:03.576Z,18.18
2022-10-15T09:15:03.292Z,18.22
2022-10-15T09:16:03.307Z,18.27
2022-10-15T09:17:02.252Z,18.33
2022-10-15T09:18:02.779Z,18.33
2022-10-15T09:19:02.515Z,18.37
2022-10-15T09:20:02.487Z,18.40
2022-10-15T09:21:02.480Z,18.43
2022-10-15T09:22:02.557Z,18.42
2022-10-15T09:23:02.568Z,18.46
2022-10-15T09:24:02.490Z,18.52
2022-10-15T09:25:02.806Z,18.55
2022-10-15T09:26:02.758Z,18.57
2022-10-15T09:27:02.821Z,18.61
2022-10-15T09:28:02.883Z,18.62
2022-10-15T09:29:02.779Z,18.59
2022-10-15T09:30:02.775Z,18.54
2022-10-15T09:31:03.187Z,18.49
2022-10-15T09:32:03.076Z,18.52
2022-10-15T09:33:02.994Z,18.59
2022-10-15T09:34:02.956Z,18.59
2022-10-15T09:35:03.600Z,18.62
2022-10-15T09:36:03.388Z,18.65
2022-10-15T09:37:02.419Z,18.68
2022-10-15T09:38:05.893Z,18.72
2022-10-15T09:39:02.415Z,18.74
2022-10-15T09:40:02.299Z,18.77
2022-10-15T09:41:02.995Z,18.73
2022-10-15T09:42:02.653Z,18.74
2022-10-15T09:43:02.849Z,18.80
2022-10-15T09:44:05.697Z,18.86
2022-10-15T09:45:02.942Z,18.95
2022-10-15T09:46:02.975Z,18.99
2022-10-15T09:47:02.937Z,19.10
2022-10-15T09:48:02.956Z,19.11
2022-10-15T09:49:03.269Z,19.15
2022-10-15T09:50:03.324Z,19.15
2022-10-15T09:51:03.167Z,19.17
2022-10-15T09:52:03.170Z,19.17
2022-10-15T09:53:03.037Z,19.20
2022-10-15T09:54:03.129Z,19.21
2022-10-15T09:55:03.207Z,19.24
2022-10-15T09:56:03.108Z,19.28
2022-10-15T09:57:02.891Z,19.32
2022-10-15T09:58:02.948Z,19.35
2022-10-15T09:59:05.916Z,19.40
2022-10-15T10:00:02.912Z,19.43
2022-10-15T10:01:03.049Z,19.42
2022-10-15T10:02:02.102Z,19.42
2022-10-15T10:03:01.884Z,19.47
2022-10-15T10:04:01.748Z,19.43
2022-10-15T10:05:04.258Z,19.40
2022-10-15T10:06:01.994Z,19.35
2022-10-15T10:07:02.734Z,19.38
2022-10-15T10:08:02.729Z,19.42
2022-10-15T10:09:02.745Z,19.48
2022-10-15T10:10:02.757Z,19.51
2022-10-15T10:11:02.672Z,19.53
2022-10-15T10:12:02.311Z,19.50
2022-10-15T10:13:02.361Z,19.57
2022-10-15T10:14:02.311Z,19.61
2022-10-15T10:15:02.310Z,19.65
2022-10-15T10:16:02.267Z,19.65
2022-10-15T10:17:02.849Z,19.60
2022-10-15T10:18:02.808Z,19.60
2022-10-15T10:19:02.852Z,19.61
2022-10-15T10:20:02.604Z,19.66
2022-10-15T10:21:02.597Z,19.63
2022-10-15T10:22:02.291Z,19.65
2022-10-15T10:23:02.037Z,19.68
2022-10-15T10:24:02.129Z,19.70
2022-10-15T10:25:02.115Z,19.70
2022-10-15T10:26:01.946Z,19.72
2022-10-15T10:27:02.621Z,19.78
2022-10-15T10:28:02.590Z,19.80
2022-10-15T10:29:10.011Z,19.87
2022-10-15T10:30:02.463Z,19.79
2022-10-15T10:31:02.500Z,19.80
2022-10-15T10:32:03.138Z,19.86
2022-10-15T10:33:03.094Z,19.88
2022-10-15T10:34:03.141Z,19.88
2022-10-15T10:35:03.207Z,19.93
2022-10-15T10:36:03.243Z,19.95
2022-10-15T10:37:02.337Z,19.97
2022-10-15T10:38:02.375Z,19.98
2022-10-15T10:39:02.425Z,20.08
2022-10-15T10:40:02.503Z,20.13
2022-10-15T10:41:02.276Z,20.21
2022-10-15T10:42:02.997Z,20.23
2022-10-15T10:43:02.955Z,20.21
2022-10-15T10:44:02.955Z,20.24
2022-10-15T10:45:02.939Z,20.31
2022-10-15T10:46:03.035Z,20.33
2022-10-15T10:47:02.742Z,20.38
2022-10-15T10:48:02.788Z,20.41
2022-10-15T10:49:02.756Z,20.42
2022-10-15T10:50:02.716Z,20.50
2022-10-15T10:51:02.697Z,20.53
2022-10-15T10:52:02.485Z,20.56
2022-10-15T10:53:02.536Z,20.62
2022-10-15T10:54:02.209Z,20.51
2022-10-15T10:55:02.281Z,20.50
2022-10-15T10:56:02.016Z,20.56
2022-10-15T10:57:02.779Z,20.62
2022-10-15T10:58:02.887Z,20.71
2022-10-15T10:59:02.685Z,20.69
2022-10-15T11:00:02.698Z,20.72
2022-10-15T11:01:02.725Z,20.76
2022-10-15T11:02:02.421Z,20.76
2022-10-15T11:03:02.115Z,20.76
2022-10-15T11:04:02.420Z,20.79
2022-10-15T11:05:01.830Z,20.81
2022-10-15T11:06:01.836Z,20.77
2022-10-15T11:07:02.885Z,20.77
2022-10-15T11:08:02.678Z,20.81
2022-10-15T11:09:02.279Z,20.83
2022-10-15T11:10:02.829Z,20.76
2022-10-15T11:11:02.768Z,20.68
2022-10-15T11:12:01.629Z,20.65
2022-10-15T11:13:02.332Z,20.61
2022-10-15T11:14:02.005Z,20.59
2022-10-15T11:15:01.912Z,20.62
2022-10-15T11:16:01.712Z,20.62
2022-10-15T11:17:01.649Z,20.62
2022-10-15T11:18:02.244Z,20.58
2022-10-15T11:19:06.281Z,20.62
2022-10-15T11:21:05.983Z,20.68
2022-10-15T11:22:01.895Z,20.71
2022-10-15T11:23:02.544Z,20.72
2022-10-15T11:24:02.248Z,20.77
2022-10-15T11:25:06.985Z,20.77
2022-10-15T11:26:02.052Z,20.77
2022-10-15T11:27:11.236Z,20.77
2022-10-15T11:28:02.183Z,20.76
2022-10-15T11:29:02.059Z,20.76
2022-10-15T11:30:02.070Z,20.77
2022-10-15T11:31:02.085Z,20.81
2022-10-15T11:32:10.418Z,20.84
2022-10-15T11:33:07.554Z,20.90
2022-10-15T11:34:02.768Z,20.93
2022-10-15T11:35:02.780Z,20.95
2022-10-15T11:36:02.548Z,20.98
2022-10-15T11:37:02.667Z,20.99
2022-10-15T11:38:02.396Z,20.98
2022-10-15T11:39:02.248Z,20.93
2022-10-15T11:40:02.240Z,20.90
2022-10-15T11:41:02.235Z,20.89
2022-10-15T11:42:02.213Z,20.83
2022-10-15T11:43:02.196Z,20.80
2022-10-15T11:44:02.062Z,20.77
2022-10-15T11:45:02.016Z,20.76
2022-10-15T11:46:02.013Z,20.76
2022-10-15T11:47:01.913Z,20.77
2022-10-15T11:48:02.590Z,20.83
2022-10-15T11:49:02.565Z,20.81
2022-10-15T11:50:02.377Z,20.76
2022-10-15T11:51:02.819Z,20.77
2022-10-15T11:52:02.802Z,20.77
2022-10-15T11:53:02.751Z,20.76
2022-10-15T11:54:02.901Z,20.71
2022-10-15T11:55:02.893Z,20.69
2022-10-15T11:56:02.763Z,20.66
2022-10-15T11:57:02.730Z,20.65
2022-10-15T11:58:02.365Z,20.62
2022-10-15T11:59:02.238Z,20.61
2022-10-15T12:00:02.732Z,20.61
2022-10-15T12:01:02.425Z,20.59
2022-10-15T12:02:02.354Z,20.58
2022-10-15T12:03:02.053Z,20.58
2022-10-15T12:04:02.071Z,20.58
2022-10-15T12:05:01.999Z,20.58
2022-10-15T12:06:01.935Z,20.56
2022-10-15T12:07:01.865Z,20.62
2022-10-15T12:08:02.350Z,20.59
2022-10-15T12:09:02.397Z,20.59
2022-10-15T12:10:02.219Z,20.56
2022-10-15T12:11:02.592Z,20.56
2022-10-15T12:12:04.381Z,20.54
2022-10-15T12:13:02.080Z,20.54
2022-10-15T12:14:01.877Z,20.51
2022-10-15T12:15:02.317Z,20.51
2022-10-15T12:16:01.858Z,20.53
2022-10-15T12:17:02.405Z,20.53
2022-10-15T12:18:02.760Z,20.56
2022-10-15T12:19:02.626Z,20.56
2022-10-15T12:20:02.604Z,20.56
2022-10-15T12:21:02.530Z,20.56
2022-10-15T12:22:02.428Z,20.56
2022-10-15T12:23:02.142Z,20.56
2022-10-15T12:24:02.123Z,20.58
2022-10-15T12:25:01.959Z,20.58
2022-10-15T12:26:01.961Z,20.58
2022-10-15T12:27:02.293Z,20.58
2022-10-15T12:28:02.647Z,20.58
2022-10-15T12:29:03.197Z,20.56
2022-10-15T12:30:02.276Z,20.51
2022-10-15T12:31:02.732Z,20.56
2022-10-15T12:32:02.594Z,20.56
2022-10-15T12:33:02.216Z,20.58
2022-10-15T12:34:02.135Z,20.59
2022-10-15T12:35:01.900Z,20.58
2022-10-15T12:36:02.384Z,20.56
2022-10-15T12:37:01.991Z,20.51
2022-10-15T12:38:02.707Z,20.49
2022-10-15T12:39:07.864Z,20.47
2022-10-15T12:40:02.321Z,20.47
2022-10-15T12:41:02.144Z,20.43
2022-10-15T12:42:02.144Z,20.46
2022-10-15T12:43:02.847Z,20.49
2022-10-15T12:44:02.603Z,20.50
2022-10-15T12:45:02.754Z,20.51
2022-10-15T12:46:02.608Z,20.58
2022-10-15T12:47:02.587Z,20.59
2022-10-15T12:48:02.180Z,20.65
2022-10-15T12:49:02.198Z,20.74
2022-10-15T12:50:02.040Z,20.80
2022-10-15T12:51:01.831Z,20.81
2022-10-15T12:52:01.810Z,20.83
2022-10-15T12:53:02.492Z,20.87
2022-10-15T12:54:02.069Z,20.90
2022-10-15T12:55:02.789Z,20.91
2022-10-15T12:56:02.515Z,20.89
2022-10-15T12:57:02.072Z,20.87
2022-10-15T12:58:02.761Z,20.93